aviador You're here:

KMHS Decoded Metar

MOUNT SHASTA in CA, USA
Report Time2017-07-26 13:56:00
UTC Time2017-07-26 14:26:11
Flight Rules vfr VFR
WindCalm
Visibility9999 m
Phenomena:N/A
Clouds:N/A
Expected CloudBase > 2,000 ft AGL from Temp-Dew spread
CeilingNone
Temp12°C (ISA +4)
Dew Point07°C (72% RH)
AAT11.3°C
QNH1020 hPa
Density Alt3,924 ft
Elevation3,537 ft
Report Wrong Elevation
Raw Report
METAR KMHS 261356Z AUTO 00000KT 10SM CLR 12/07 A3013 RMK AO2 SLP193
T01170072=

Extra information for KMHS:More info

Metar Taf Metar & Taf Last 4 Metars F.Rules Stats Wind Profile Meteogram Temp Stats Airport Information Weather charts Add Link Nearby VenuesMetar ALERT Operation Metar Decoded Social comments

AIRNAV info for KMHS